sensor_id;sensor_type;location;lat;lon;timestamp;P1;durP1;ratioP1;P2;durP2;ratioP2
3405;SDS011;10008;48.682;9.016;2022-07-30T00:01:58;9.47;;;6.13;;
3405;SDS011;10008;48.682;9.016;2022-07-30T00:04:25;8.70;;;5.40;;
3405;SDS011;10008;48.682;9.016;2022-07-30T00:06:51;7.80;;;4.90;;
3405;SDS011;10008;48.682;9.016;2022-07-30T00:09:16;8.37;;;5.30;;
3405;SDS011;10008;48.682;9.016;2022-07-30T00:11:42;6.77;;;5.07;;
3405;SDS011;10008;48.682;9.016;2022-07-30T00:14:08;8.30;;;4.50;;
3405;SDS011;10008;48.682;9.016;2022-07-30T00:16:34;9.30;;;5.50;;
3405;SDS011;10008;48.682;9.016;2022-07-30T00:19:00;9.50;;;4.63;;
3405;SDS011;10008;48.682;9.016;2022-07-30T00:21:26;8.60;;;4.53;;
3405;SDS011;10008;48.682;9.016;2022-07-30T00:23:52;8.17;;;4.63;;
3405;SDS011;10008;48.682;9.016;2022-07-30T00:26:18;8.27;;;5.23;;
3405;SDS011;10008;48.682;9.016;2022-07-30T00:28:43;9.03;;;5.10;;
3405;SDS011;10008;48.682;9.016;2022-07-30T00:31:09;8.47;;;5.43;;
3405;SDS011;10008;48.682;9.016;2022-07-30T00:33:35;9.63;;;5.30;;
3405;SDS011;10008;48.682;9.016;2022-07-30T00:36:01;8.60;;;4.97;;
3405;SDS011;10008;48.682;9.016;2022-07-30T00:38:27;7.90;;;5.33;;
3405;SDS011;10008;48.682;9.016;2022-07-30T00:40:53;8.57;;;4.70;;
3405;SDS011;10008;48.682;9.016;2022-07-30T00:43:18;8.43;;;5.03;;
3405;SDS011;10008;48.682;9.016;2022-07-30T00:45:45;9.97;;;4.90;;
3405;SDS011;10008;48.682;9.016;2022-07-30T00:48:11;8.00;;;5.30;;
3405;SDS011;10008;48.682;9.016;2022-07-30T00:50:38;7.53;;;4.93;;
3405;SDS011;10008;48.682;9.016;2022-07-30T00:53:04;10.57;;;5.03;;
3405;SDS011;10008;48.682;9.016;2022-07-30T00:55:31;7.53;;;5.17;;
3405;SDS011;10008;48.682;9.016;2022-07-30T00:57:57;8.70;;;5.40;;
3405;SDS011;10008;48.682;9.016;2022-07-30T01:00:23;8.73;;;5.43;;
3405;SDS011;10008;48.682;9.016;2022-07-30T01:02:50;9.33;;;5.33;;
3405;SDS011;10008;48.682;9.016;2022-07-30T01:05:16;7.77;;;5.33;;
3405;SDS011;10008;48.682;9.016;2022-07-30T01:07:42;7.83;;;5.10;;
3405;SDS011;10008;48.682;9.016;2022-07-30T01:10:09;8.83;;;5.40;;
3405;SDS011;10008;48.682;9.016;2022-07-30T01:12:36;9.27;;;5.63;;
3405;SDS011;10008;48.682;9.016;2022-07-30T01:15:03;9.40;;;6.00;;
3405;SDS011;10008;48.682;9.016;2022-07-30T01:17:31;8.90;;;5.73;;
3405;SDS011;10008;48.682;9.016;2022-07-30T01:20:01;9.10;;;4.93;;
3405;SDS011;10008;48.682;9.016;2022-07-30T01:25:37;8.90;;;6.30;;
3405;SDS011;10008;48.682;9.016;2022-07-30T01:28:08;7.90;;;5.60;;
3405;SDS011;10008;48.682;9.016;2022-07-30T01:30:41;8.30;;;5.80;;
3405;SDS011;10008;48.682;9.016;2022-07-30T01:33:09;7.67;;;5.83;;
3405;SDS011;10008;48.682;9.016;2022-07-30T01:35:38;8.43;;;5.50;;
3405;SDS011;10008;48.682;9.016;2022-07-30T01:38:06;9.00;;;7.00;;
3405;SDS011;10008;48.682;9.016;2022-07-30T01:40:33;9.70;;;7.03;;
3405;SDS011;10008;48.682;9.016;2022-07-30T01:43:02;9.80;;;6.10;;
3405;SDS011;10008;48.682;9.016;2022-07-30T01:45:29;9.13;;;6.03;;
3405;SDS011;10008;48.682;9.016;2022-07-30T01:47:58;8.33;;;5.73;;
3405;SDS011;10008;48.682;9.016;2022-07-30T01:50:27;10.33;;;6.20;;
3405;SDS011;10008;48.682;9.016;2022-07-30T01:52:55;9.00;;;5.87;;
3405;SDS011;10008;48.682;9.016;2022-07-30T01:55:23;7.97;;;6.03;;
3405;SDS011;10008;48.682;9.016;2022-07-30T01:57:52;9.83;;;6.20;;
3405;SDS011;10008;48.682;9.016;2022-07-30T02:00:19;7.33;;;6.13;;
3405;SDS011;10008;48.682;9.016;2022-07-30T02:02:48;8.57;;;6.30;;
3405;SDS011;10008;48.682;9.016;2022-07-30T02:05:14;9.83;;;6.60;;
3405;SDS011;10008;48.682;9.016;2022-07-30T02:10:34;9.50;;;6.93;;
3405;SDS011;10008;48.682;9.016;2022-07-30T02:13:13;9.10;;;7.00;;
3405;SDS011;10008;48.682;9.016;2022-07-30T02:15:49;8.80;;;6.80;;
3405;SDS011;10008;48.682;9.016;2022-07-30T02:18:35;8.73;;;7.07;;
3405;SDS011;10008;48.682;9.016;2022-07-30T02:21:13;9.53;;;7.60;;
3405;SDS011;10008;48.682;9.016;2022-07-30T02:23:44;10.80;;;7.20;;
3405;SDS011;10008;48.682;9.016;2022-07-30T02:26:12;8.00;;;6.87;;
3405;SDS011;10008;48.682;9.016;2022-07-30T02:28:42;9.90;;;6.47;;
3405;SDS011;10008;48.682;9.016;2022-07-30T02:31:12;9.70;;;7.53;;
3405;SDS011;10008;48.682;9.016;2022-07-30T02:33:40;10.20;;;6.83;;
3405;SDS011;10008;48.682;9.016;2022-07-30T02:36:08;9.17;;;7.10;;
3405;SDS011;10008;48.682;9.016;2022-07-30T02:38:35;8.03;;;6.70;;
3405;SDS011;10008;48.682;9.016;2022-07-30T02:41:03;12.00;;;6.23;;
3405;SDS011;10008;48.682;9.016;2022-07-30T02:43:33;8.03;;;6.70;;
3405;SDS011;10008;48.682;9.016;2022-07-30T02:46:02;8.50;;;6.63;;
3405;SDS011;10008;48.682;9.016;2022-07-30T02:48:48;8.60;;;6.97;;
3405;SDS011;10008;48.682;9.016;2022-07-30T02:51:17;7.50;;;6.10;;
3405;SDS011;10008;48.682;9.016;2022-07-30T02:53:46;7.80;;;6.50;;
3405;SDS011;10008;48.682;9.016;2022-07-30T02:56:14;8.47;;;7.23;;
3405;SDS011;10008;48.682;9.016;2022-07-30T02:58:43;8.83;;;7.13;;
3405;SDS011;10008;48.682;9.016;2022-07-30T03:01:12;9.73;;;7.10;;
3405;SDS011;10008;48.682;9.016;2022-07-30T03:03:42;9.97;;;7.80;;
3405;SDS011;10008;48.682;9.016;2022-07-30T03:06:09;11.30;;;8.60;;
3405;SDS011;10008;48.682;9.016;2022-07-30T03:08:38;9.50;;;8.17;;
3405;SDS011;10008;48.682;9.016;2022-07-30T03:11:07;9.50;;;8.50;;
3405;SDS011;10008;48.682;9.016;2022-07-30T03:13:38;9.83;;;8.83;;
3405;SDS011;10008;48.682;9.016;2022-07-30T03:16:06;9.90;;;8.40;;
3405;SDS011;10008;48.682;9.016;2022-07-30T03:18:35;10.40;;;8.80;;
3405;SDS011;10008;48.682;9.016;2022-07-30T03:21:04;9.67;;;8.40;;
3405;SDS011;10008;48.682;9.016;2022-07-30T03:23:33;9.90;;;8.90;;
3405;SDS011;10008;48.682;9.016;2022-07-30T03:26:03;10.70;;;8.77;;
3405;SDS011;10008;48.682;9.016;2022-07-30T03:28:31;11.57;;;9.07;;
3405;SDS011;10008;48.682;9.016;2022-07-30T03:30:59;11.07;;;9.03;;
3405;SDS011;10008;48.682;9.016;2022-07-30T03:33:26;10.50;;;9.30;;
3405;SDS011;10008;48.682;9.016;2022-07-30T03:35:53;12.80;;;9.07;;
3405;SDS011;10008;48.682;9.016;2022-07-30T03:38:19;11.30;;;9.60;;
3405;SDS011;10008;48.682;9.016;2022-07-30T03:40:47;11.47;;;9.30;;
3405;SDS011;10008;48.682;9.016;2022-07-30T03:43:14;15.60;;;11.17;;
3405;SDS011;10008;48.682;9.016;2022-07-30T03:45:41;17.43;;;12.47;;
3405;SDS011;10008;48.682;9.016;2022-07-30T03:48:09;20.23;;;13.87;;
3405;SDS011;10008;48.682;9.016;2022-07-30T03:50:41;15.40;;;12.90;;
3405;SDS011;10008;48.682;9.016;2022-07-30T03:53:08;14.50;;;11.60;;
3405;SDS011;10008;48.682;9.016;2022-07-30T03:55:55;12.97;;;10.80;;
3405;SDS011;10008;48.682;9.016;2022-07-30T03:58:40;15.57;;;11.50;;
3405;SDS011;10008;48.682;9.016;2022-07-30T04:01:07;15.07;;;10.70;;
3405;SDS011;10008;48.682;9.016;2022-07-30T04:03:34;13.00;;;11.07;;
3405;SDS011;10008;48.682;9.016;2022-07-30T04:06:02;13.67;;;10.43;;
3405;SDS011;10008;48.682;9.016;2022-07-30T04:08:29;14.60;;;10.60;;
3405;SDS011;10008;48.682;9.016;2022-07-30T04:10:55;13.47;;;10.53;;
3405;SDS011;10008;48.682;9.016;2022-07-30T04:13:41;14.20;;;10.30;;
3405;SDS011;10008;48.682;9.016;2022-07-30T04:16:13;11.30;;;9.73;;
3405;SDS011;10008;48.682;9.016;2022-07-30T04:18:46;13.00;;;10.13;;
3405;SDS011;10008;48.682;9.016;2022-07-30T04:21:15;11.20;;;9.30;;
3405;SDS011;10008;48.682;9.016;2022-07-30T04:23:44;11.90;;;9.53;;
3405;SDS011;10008;48.682;9.016;2022-07-30T04:26:11;12.93;;;9.60;;
3405;SDS011;10008;48.682;9.016;2022-07-30T04:28:38;11.77;;;9.07;;
3405;SDS011;10008;48.682;9.016;2022-07-30T04:31:04;10.73;;;8.80;;
3405;SDS011;10008;48.682;9.016;2022-07-30T04:33:30;12.30;;;9.57;;
3405;SDS011;10008;48.682;9.016;2022-07-30T04:36:07;10.20;;;8.40;;
3405;SDS011;10008;48.682;9.016;2022-07-30T04:38:35;10.53;;;8.50;;
3405;SDS011;10008;48.682;9.016;2022-07-30T04:41:01;12.60;;;9.53;;
3405;SDS011;10008;48.682;9.016;2022-07-30T04:43:35;10.60;;;9.20;;
3405;SDS011;10008;48.682;9.016;2022-07-30T04:46:01;11.40;;;9.67;;
3405;SDS011;10008;48.682;9.016;2022-07-30T04:48:27;11.40;;;9.30;;
3405;SDS011;10008;48.682;9.016;2022-07-30T04:51:24;10.70;;;9.10;;
3405;SDS011;10008;48.682;9.016;2022-07-30T04:53:53;11.90;;;9.20;;
3405;SDS011;10008;48.682;9.016;2022-07-30T04:56:20;10.37;;;8.00;;
3405;SDS011;10008;48.682;9.016;2022-07-30T04:58:47;11.47;;;8.70;;
3405;SDS011;10008;48.682;9.016;2022-07-30T05:01:16;14.40;;;10.00;;
3405;SDS011;10008;48.682;9.016;2022-07-30T05:03:46;11.83;;;8.60;;
3405;SDS011;10008;48.682;9.016;2022-07-30T05:06:16;11.87;;;8.80;;
3405;SDS011;10008;48.682;9.016;2022-07-30T05:08:42;11.23;;;8.43;;
3405;SDS011;10008;48.682;9.016;2022-07-30T05:11:10;10.60;;;8.80;;
3405;SDS011;10008;48.682;9.016;2022-07-30T05:13:39;13.70;;;8.90;;
3405;SDS011;10008;48.682;9.016;2022-07-30T05:16:10;10.87;;;8.70;;
3405;SDS011;10008;48.682;9.016;2022-07-30T05:18:36;10.97;;;8.60;;
3405;SDS011;10008;48.682;9.016;2022-07-30T05:21:03;10.43;;;9.33;;
3405;SDS011;10008;48.682;9.016;2022-07-30T05:23:41;11.87;;;9.10;;
3405;SDS011;10008;48.682;9.016;2022-07-30T05:26:17;11.73;;;8.60;;
3405;SDS011;10008;48.682;9.016;2022-07-30T05:28:45;10.00;;;8.30;;
3405;SDS011;10008;48.682;9.016;2022-07-30T05:31:12;11.60;;;8.20;;
3405;SDS011;10008;48.682;9.016;2022-07-30T05:33:39;10.10;;;8.30;;
3405;SDS011;10008;48.682;9.016;2022-07-30T05:36:07;12.50;;;8.33;;
3405;SDS011;10008;48.682;9.016;2022-07-30T05:38:36;13.60;;;8.60;;
3405;SDS011;10008;48.682;9.016;2022-07-30T05:41:21;12.87;;;8.83;;
3405;SDS011;10008;48.682;9.016;2022-07-30T05:43:59;11.07;;;8.70;;
3405;SDS011;10008;48.682;9.016;2022-07-30T05:46:26;11.57;;;8.60;;
3405;SDS011;10008;48.682;9.016;2022-07-30T05:48:52;12.30;;;7.87;;
3405;SDS011;10008;48.682;9.016;2022-07-30T05:51:18;10.33;;;8.40;;
3405;SDS011;10008;48.682;9.016;2022-07-30T05:53:45;12.93;;;9.17;;
3405;SDS011;10008;48.682;9.016;2022-07-30T05:56:29;12.23;;;8.93;;
3405;SDS011;10008;48.682;9.016;2022-07-30T05:59:02;11.57;;;9.10;;
3405;SDS011;10008;48.682;9.016;2022-07-30T06:02:01;13.10;;;8.80;;
3405;SDS011;10008;48.682;9.016;2022-07-30T06:04:37;13.37;;;8.60;;
3405;SDS011;10008;48.682;9.016;2022-07-30T06:07:04;12.23;;;8.43;;
3405;SDS011;10008;48.682;9.016;2022-07-30T06:09:31;10.07;;;7.60;;
3405;SDS011;10008;48.682;9.016;2022-07-30T06:11:57;11.07;;;8.33;;
3405;SDS011;10008;48.682;9.016;2022-07-30T06:14:23;9.40;;;7.30;;
3405;SDS011;10008;48.682;9.016;2022-07-30T06:16:49;11.00;;;8.20;;
3405;SDS011;10008;48.682;9.016;2022-07-30T06:19:15;13.80;;;8.37;;
3405;SDS011;10008;48.682;9.016;2022-07-30T06:21:43;10.07;;;7.60;;
3405;SDS011;10008;48.682;9.016;2022-07-30T06:24:10;9.80;;;8.10;;
3405;SDS011;10008;48.682;9.016;2022-07-30T06:26:40;10.97;;;8.13;;
3405;SDS011;10008;48.682;9.016;2022-07-30T06:29:07;10.60;;;8.10;;
3405;SDS011;10008;48.682;9.016;2022-07-30T06:31:33;10.30;;;7.60;;
3405;SDS011;10008;48.682;9.016;2022-07-30T06:33:59;9.30;;;8.03;;
3405;SDS011;10008;48.682;9.016;2022-07-30T06:36:30;12.83;;;9.07;;
3405;SDS011;10008;48.682;9.016;2022-07-30T06:38:59;14.53;;;9.60;;
3405;SDS011;10008;48.682;9.016;2022-07-30T06:41:50;10.50;;;8.47;;
3405;SDS011;10008;48.682;9.016;2022-07-30T06:44:16;14.73;;;9.30;;
3405;SDS011;10008;48.682;9.016;2022-07-30T06:47:00;11.10;;;8.87;;
3405;SDS011;10008;48.682;9.016;2022-07-30T06:49:26;11.07;;;9.17;;
3405;SDS011;10008;48.682;9.016;2022-07-30T06:51:55;13.80;;;9.73;;
3405;SDS011;10008;48.682;9.016;2022-07-30T06:54:20;10.17;;;8.73;;
3405;SDS011;10008;48.682;9.016;2022-07-30T06:56:52;12.20;;;10.40;;
3405;SDS011;10008;48.682;9.016;2022-07-30T06:59:19;11.53;;;8.97;;
3405;SDS011;10008;48.682;9.016;2022-07-30T07:02:12;12.80;;;8.20;;
3405;SDS011;10008;48.682;9.016;2022-07-30T07:04:54;10.10;;;7.93;;
3405;SDS011;10008;48.682;9.016;2022-07-30T07:07:20;10.83;;;8.93;;
3405;SDS011;10008;48.682;9.016;2022-07-30T07:09:45;13.63;;;9.40;;
3405;SDS011;10008;48.682;9.016;2022-07-30T07:12:31;12.00;;;8.63;;
3405;SDS011;10008;48.682;9.016;2022-07-30T07:14:57;11.27;;;8.70;;
3405;SDS011;10008;48.682;9.016;2022-07-30T07:17:24;10.63;;;9.07;;
3405;SDS011;10008;48.682;9.016;2022-07-30T07:19:56;12.43;;;7.97;;
3405;SDS011;10008;48.682;9.016;2022-07-30T07:22:23;12.73;;;8.70;;
3405;SDS011;10008;48.682;9.016;2022-07-30T07:24:48;12.40;;;8.70;;
3405;SDS011;10008;48.682;9.016;2022-07-30T07:27:20;10.73;;;8.60;;
3405;SDS011;10008;48.682;9.016;2022-07-30T07:29:48;9.60;;;7.70;;
3405;SDS011;10008;48.682;9.016;2022-07-30T07:32:14;10.40;;;7.70;;
3405;SDS011;10008;48.682;9.016;2022-07-30T07:34:41;8.33;;;6.40;;
3405;SDS011;10008;48.682;9.016;2022-07-30T07:37:07;9.10;;;7.30;;
3405;SDS011;10008;48.682;9.016;2022-07-30T07:39:32;11.73;;;7.73;;
3405;SDS011;10008;48.682;9.016;2022-07-30T07:41:59;10.10;;;6.30;;
3405;SDS011;10008;48.682;9.016;2022-07-30T07:44:27;10.63;;;6.30;;
3405;SDS011;10008;48.682;9.016;2022-07-30T07:46:53;9.30;;;6.00;;
3405;SDS011;10008;48.682;9.016;2022-07-30T07:49:19;10.70;;;6.20;;
3405;SDS011;10008;48.682;9.016;2022-07-30T07:51:48;9.30;;;6.30;;
3405;SDS011;10008;48.682;9.016;2022-07-30T07:54:19;9.30;;;6.10;;
3405;SDS011;10008;48.682;9.016;2022-07-30T07:56:46;11.77;;;5.80;;
3405;SDS011;10008;48.682;9.016;2022-07-30T07:59:14;12.43;;;6.13;;
3405;SDS011;10008;48.682;9.016;2022-07-30T08:01:40;9.10;;;5.47;;
3405;SDS011;10008;48.682;9.016;2022-07-30T08:04:15;8.83;;;6.33;;
3405;SDS011;10008;48.682;9.016;2022-07-30T08:07:00;9.80;;;5.57;;
3405;SDS011;10008;48.682;9.016;2022-07-30T08:09:44;9.73;;;6.20;;
3405;SDS011;10008;48.682;9.016;2022-07-30T08:12:16;8.60;;;5.67;;
3405;SDS011;10008;48.682;9.016;2022-07-30T08:15:01;10.10;;;4.83;;
3405;SDS011;10008;48.682;9.016;2022-07-30T08:17:46;12.00;;;6.70;;
3405;SDS011;10008;48.682;9.016;2022-07-30T08:20:16;9.57;;;4.50;;
3405;SDS011;10008;48.682;9.016;2022-07-30T08:22:42;8.60;;;4.70;;
3405;SDS011;10008;48.682;9.016;2022-07-30T08:25:08;9.00;;;4.13;;
3405;SDS011;10008;48.682;9.016;2022-07-30T08:27:35;9.43;;;3.80;;
3405;SDS011;10008;48.682;9.016;2022-07-30T08:30:04;6.47;;;3.60;;
3405;SDS011;10008;48.682;9.016;2022-07-30T08:32:32;8.83;;;4.00;;
3405;SDS011;10008;48.682;9.016;2022-07-30T08:34:59;8.60;;;4.00;;
3405;SDS011;10008;48.682;9.016;2022-07-30T08:37:25;7.40;;;4.10;;
3405;SDS011;10008;48.682;9.016;2022-07-30T08:39:51;8.53;;;4.13;;
3405;SDS011;10008;48.682;9.016;2022-07-30T08:42:17;7.17;;;4.30;;
3405;SDS011;10008;48.682;9.016;2022-07-30T08:44:44;6.90;;;3.57;;
3405;SDS011;10008;48.682;9.016;2022-07-30T08:47:15;9.67;;;3.90;;
3405;SDS011;10008;48.682;9.016;2022-07-30T08:50:02;7.67;;;3.83;;
3405;SDS011;10008;48.682;9.016;2022-07-30T08:52:34;7.03;;;4.53;;
3405;SDS011;10008;48.682;9.016;2022-07-30T08:55:01;7.83;;;4.20;;
3405;SDS011;10008;48.682;9.016;2022-07-30T08:57:29;7.50;;;3.80;;
3405;SDS011;10008;48.682;9.016;2022-07-30T08:59:58;7.47;;;3.70;;
3405;SDS011;10008;48.682;9.016;2022-07-30T09:02:26;9.90;;;4.03;;
3405;SDS011;10008;48.682;9.016;2022-07-30T09:05:04;7.00;;;3.67;;
3405;SDS011;10008;48.682;9.016;2022-07-30T09:07:32;9.87;;;4.87;;
3405;SDS011;10008;48.682;9.016;2022-07-30T09:09:59;7.57;;;3.73;;
3405;SDS011;10008;48.682;9.016;2022-07-30T09:12:31;9.50;;;4.20;;
3405;SDS011;10008;48.682;9.016;2022-07-30T09:20:34;7.20;;;3.60;;
3405;SDS011;10008;48.682;9.016;2022-07-30T09:23:06;7.23;;;3.83;;
3405;SDS011;10008;48.682;9.016;2022-07-30T09:26:09;8.27;;;3.67;;
3405;SDS011;10008;48.682;9.016;2022-07-30T09:29:17;7.27;;;3.30;;
3405;SDS011;10008;48.682;9.016;2022-07-30T09:32:07;6.50;;;4.07;;
3405;SDS011;10008;48.682;9.016;2022-07-30T09:34:52;7.07;;;3.17;;
3405;SDS011;10008;48.682;9.016;2022-07-30T09:37:36;5.70;;;2.83;;
3405;SDS011;10008;48.682;9.016;2022-07-30T09:40:22;5.80;;;2.90;;
3405;SDS011;10008;48.682;9.016;2022-07-30T09:43:09;7.70;;;3.13;;
3405;SDS011;10008;48.682;9.016;2022-07-30T09:45:49;7.90;;;3.33;;
3405;SDS011;10008;48.682;9.016;2022-07-30T09:48:25;10.57;;;3.37;;
3405;SDS011;10008;48.682;9.016;2022-07-30T09:50:53;6.07;;;3.03;;
3405;SDS011;10008;48.682;9.016;2022-07-30T09:53:20;8.10;;;3.60;;
3405;SDS011;10008;48.682;9.016;2022-07-30T09:55:49;8.53;;;3.37;;
3405;SDS011;10008;48.682;9.016;2022-07-30T09:58:15;7.80;;;3.00;;
3405;SDS011;10008;48.682;9.016;2022-07-30T10:00:41;7.50;;;3.60;;
3405;SDS011;10008;48.682;9.016;2022-07-30T10:03:23;4.90;;;3.17;;
3405;SDS011;10008;48.682;9.016;2022-07-30T10:06:10;4.90;;;3.00;;
3405;SDS011;10008;48.682;9.016;2022-07-30T10:08:45;6.20;;;2.93;;
3405;SDS011;10008;48.682;9.016;2022-07-30T10:11:17;5.83;;;3.03;;
3405;SDS011;10008;48.682;9.016;2022-07-30T10:13:49;6.90;;;3.67;;
3405;SDS011;10008;48.682;9.016;2022-07-30T10:16:18;5.13;;;2.90;;
3405;SDS011;10008;48.682;9.016;2022-07-30T10:18:45;8.13;;;3.73;;
3405;SDS011;10008;48.682;9.016;2022-07-30T10:21:33;6.07;;;3.00;;
3405;SDS011;10008;48.682;9.016;2022-07-30T10:24:18;5.90;;;2.87;;
3405;SDS011;10008;48.682;9.016;2022-07-30T10:27:03;9.60;;;2.60;;
3405;SDS011;10008;48.682;9.016;2022-07-30T10:29:47;8.00;;;3.13;;
3405;SDS011;10008;48.682;9.016;2022-07-30T10:32:13;8.00;;;3.17;;
3405;SDS011;10008;48.682;9.016;2022-07-30T10:34:39;8.90;;;3.17;;
3405;SDS011;10008;48.682;9.016;2022-07-30T10:37:06;6.23;;;3.03;;
3405;SDS011;10008;48.682;9.016;2022-07-30T10:39:37;5.83;;;3.27;;
3405;SDS011;10008;48.682;9.016;2022-07-30T10:47:44;5.67;;;3.20;;
3405;SDS011;10008;48.682;9.016;2022-07-30T10:50:15;6.80;;;3.20;;
3405;SDS011;10008;48.682;9.016;2022-07-30T10:55:21;8.30;;;3.10;;
3405;SDS011;10008;48.682;9.016;2022-07-30T11:03:21;5.97;;;3.10;;
3405;SDS011;10008;48.682;9.016;2022-07-30T11:05:50;5.70;;;2.73;;
3405;SDS011;10008;48.682;9.016;2022-07-30T11:08:37;6.20;;;2.90;;
3405;SDS011;10008;48.682;9.016;2022-07-30T11:11:49;5.90;;;2.80;;
3405;SDS011;10008;48.682;9.016;2022-07-30T11:13:55;5.20;;;2.60;;
3405;SDS011;10008;48.682;9.016;2022-07-30T11:16:23;7.83;;;2.90;;
3405;SDS011;10008;48.682;9.016;2022-07-30T11:19:14;6.17;;;2.90;;
3405;SDS011;10008;48.682;9.016;2022-07-30T11:21:41;6.27;;;2.73;;
3405;SDS011;10008;48.682;9.016;2022-07-30T11:27:35;5.60;;;2.80;;
3405;SDS011;10008;48.682;9.016;2022-07-30T11:30:50;7.90;;;4.80;;
3405;SDS011;10008;48.682;9.016;2022-07-30T11:35:29;4.47;;;2.37;;
3405;SDS011;10008;48.682;9.016;2022-07-30T11:38:01;5.57;;;2.60;;
3405;SDS011;10008;48.682;9.016;2022-07-30T11:43:20;5.17;;;2.20;;
3405;SDS011;10008;48.682;9.016;2022-07-30T11:46:06;5.37;;;2.70;;
3405;SDS011;10008;48.682;9.016;2022-07-30T11:48:41;6.50;;;2.40;;
3405;SDS011;10008;48.682;9.016;2022-07-30T11:51:19;5.33;;;2.23;;
3405;SDS011;10008;48.682;9.016;2022-07-30T11:53:58;7.23;;;2.40;;
3405;SDS011;10008;48.682;9.016;2022-07-30T11:56:28;8.50;;;3.20;;
3405;SDS011;10008;48.682;9.016;2022-07-30T11:59:04;4.90;;;2.23;;
3405;SDS011;10008;48.682;9.016;2022-07-30T12:01:32;6.50;;;2.63;;
3405;SDS011;10008;48.682;9.016;2022-07-30T12:04:02;6.47;;;2.73;;
3405;SDS011;10008;48.682;9.016;2022-07-30T12:06:29;4.80;;;2.00;;
3405;SDS011;10008;48.682;9.016;2022-07-30T12:09:00;5.20;;;2.10;;
3405;SDS011;10008;48.682;9.016;2022-07-30T12:11:32;6.77;;;3.23;;
3405;SDS011;10008;48.682;9.016;2022-07-30T12:13:59;5.07;;;2.10;;
3405;SDS011;10008;48.682;9.016;2022-07-30T12:16:26;5.17;;;2.07;;
3405;SDS011;10008;48.682;9.016;2022-07-30T12:18:53;6.17;;;2.13;;
3405;SDS011;10008;48.682;9.016;2022-07-30T12:21:19;5.00;;;2.00;;
3405;SDS011;10008;48.682;9.016;2022-07-30T12:23:55;5.00;;;2.17;;
3405;SDS011;10008;48.682;9.016;2022-07-30T12:26:23;5.37;;;2.30;;
3405;SDS011;10008;48.682;9.016;2022-07-30T12:28:55;5.00;;;2.47;;
3405;SDS011;10008;48.682;9.016;2022-07-30T12:31:22;4.87;;;2.33;;
3405;SDS011;10008;48.682;9.016;2022-07-30T12:33:48;7.33;;;2.43;;
3405;SDS011;10008;48.682;9.016;2022-07-30T12:39:16;6.07;;;2.27;;
3405;SDS011;10008;48.682;9.016;2022-07-30T12:41:45;6.33;;;2.20;;
3405;SDS011;10008;48.682;9.016;2022-07-30T12:47:00;4.97;;;2.10;;
3405;SDS011;10008;48.682;9.016;2022-07-30T12:49:30;5.23;;;2.20;;
3405;SDS011;10008;48.682;9.016;2022-07-30T12:51:56;7.57;;;2.63;;
3405;SDS011;10008;48.682;9.016;2022-07-30T12:54:22;4.50;;;2.33;;
3405;SDS011;10008;48.682;9.016;2022-07-30T12:56:58;5.10;;;2.10;;
3405;SDS011;10008;48.682;9.016;2022-07-30T12:59:26;8.40;;;2.17;;
3405;SDS011;10008;48.682;9.016;2022-07-30T13:01:52;6.93;;;2.30;;
3405;SDS011;10008;48.682;9.016;2022-07-30T13:04:19;7.00;;;2.20;;
3405;SDS011;10008;48.682;9.016;2022-07-30T13:07:19;4.00;;;1.87;;
3405;SDS011;10008;48.682;9.016;2022-07-30T13:09:38;4.87;;;2.37;;
3405;SDS011;10008;48.682;9.016;2022-07-30T13:12:04;4.90;;;2.20;;
3405;SDS011;10008;48.682;9.016;2022-07-30T13:14:30;5.80;;;2.53;;
3405;SDS011;10008;48.682;9.016;2022-07-30T13:16:57;6.93;;;2.30;;
3405;SDS011;10008;48.682;9.016;2022-07-30T13:19:23;6.07;;;2.50;;
3405;SDS011;10008;48.682;9.016;2022-07-30T13:21:50;5.20;;;2.23;;
3405;SDS011;10008;48.682;9.016;2022-07-30T13:24:17;5.13;;;2.10;;
3405;SDS011;10008;48.682;9.016;2022-07-30T13:26:43;4.67;;;2.13;;
3405;SDS011;10008;48.682;9.016;2022-07-30T13:29:08;4.83;;;2.33;;
3405;SDS011;10008;48.682;9.016;2022-07-30T13:31:35;6.40;;;2.20;;
3405;SDS011;10008;48.682;9.016;2022-07-30T13:34:01;4.70;;;2.17;;
3405;SDS011;10008;48.682;9.016;2022-07-30T13:36:28;5.77;;;2.50;;
3405;SDS011;10008;48.682;9.016;2022-07-30T13:38:54;6.40;;;2.73;;
3405;SDS011;10008;48.682;9.016;2022-07-30T13:41:20;4.17;;;2.13;;
3405;SDS011;10008;48.682;9.016;2022-07-30T13:43:46;5.60;;;2.40;;
3405;SDS011;10008;48.682;9.016;2022-07-30T13:46:11;4.50;;;1.93;;
3405;SDS011;10008;48.682;9.016;2022-07-30T13:48:37;4.40;;;2.27;;
3405;SDS011;10008;48.682;9.016;2022-07-30T13:51:04;4.43;;;2.27;;
3405;SDS011;10008;48.682;9.016;2022-07-30T13:53:30;5.90;;;2.40;;
3405;SDS011;10008;48.682;9.016;2022-07-30T13:55:56;6.07;;;2.40;;
3405;SDS011;10008;48.682;9.016;2022-07-30T13:58:25;6.10;;;2.90;;
3405;SDS011;10008;48.682;9.016;2022-07-30T14:00:51;5.97;;;3.10;;
3405;SDS011;10008;48.682;9.016;2022-07-30T14:03:17;5.30;;;2.43;;
3405;SDS011;10008;48.682;9.016;2022-07-30T14:05:43;4.67;;;2.30;;
3405;SDS011;10008;48.682;9.016;2022-07-30T14:08:09;6.17;;;2.77;;
3405;SDS011;10008;48.682;9.016;2022-07-30T14:10:36;6.00;;;2.90;;
3405;SDS011;10008;48.682;9.016;2022-07-30T14:13:04;5.40;;;2.63;;
3405;SDS011;10008;48.682;9.016;2022-07-30T14:15:31;6.00;;;2.70;;
3405;SDS011;10008;48.682;9.016;2022-07-30T14:17:57;6.07;;;2.60;;
3405;SDS011;10008;48.682;9.016;2022-07-30T14:20:24;5.90;;;2.40;;
3405;SDS011;10008;48.682;9.016;2022-07-30T14:22:50;4.93;;;2.50;;
3405;SDS011;10008;48.682;9.016;2022-07-30T14:25:16;4.93;;;2.37;;
3405;SDS011;10008;48.682;9.016;2022-07-30T14:27:43;6.70;;;2.70;;
3405;SDS011;10008;48.682;9.016;2022-07-30T14:30:10;4.37;;;1.97;;
3405;SDS011;10008;48.682;9.016;2022-07-30T14:32:36;5.60;;;1.90;;
3405;SDS011;10008;48.682;9.016;2022-07-30T14:35:07;5.07;;;2.40;;
3405;SDS011;10008;48.682;9.016;2022-07-30T14:37:37;4.17;;;1.70;;
3405;SDS011;10008;48.682;9.016;2022-07-30T14:40:07;4.43;;;2.00;;
3405;SDS011;10008;48.682;9.016;2022-07-30T14:42:35;4.00;;;1.80;;
3405;SDS011;10008;48.682;9.016;2022-07-30T14:45:04;5.67;;;1.80;;
3405;SDS011;10008;48.682;9.016;2022-07-30T14:47:31;5.70;;;2.27;;
3405;SDS011;10008;48.682;9.016;2022-07-30T14:49:57;5.23;;;2.00;;
3405;SDS011;10008;48.682;9.016;2022-07-30T14:52:23;6.00;;;1.90;;
3405;SDS011;10008;48.682;9.016;2022-07-30T14:54:50;5.07;;;2.30;;
3405;SDS011;10008;48.682;9.016;2022-07-30T14:57:16;9.10;;;2.20;;
3405;SDS011;10008;48.682;9.016;2022-07-30T14:59:42;6.53;;;2.17;;
3405;SDS011;10008;48.682;9.016;2022-07-30T15:02:07;3.90;;;1.80;;
3405;SDS011;10008;48.682;9.016;2022-07-30T15:04:34;4.83;;;2.00;;
3405;SDS011;10008;48.682;9.016;2022-07-30T15:07:00;5.40;;;2.60;;
3405;SDS011;10008;48.682;9.016;2022-07-30T15:09:26;6.53;;;2.20;;
3405;SDS011;10008;48.682;9.016;2022-07-30T15:11:52;5.17;;;1.97;;
3405;SDS011;10008;48.682;9.016;2022-07-30T15:14:17;10.93;;;7.50;;
3405;SDS011;10008;48.682;9.016;2022-07-30T15:16:43;7.03;;;2.30;;
3405;SDS011;10008;48.682;9.016;2022-07-30T15:19:09;7.53;;;3.03;;
3405;SDS011;10008;48.682;9.016;2022-07-30T15:21:35;6.27;;;2.03;;
3405;SDS011;10008;48.682;9.016;2022-07-30T15:24:01;7.27;;;2.07;;
3405;SDS011;10008;48.682;9.016;2022-07-30T15:26:27;7.20;;;2.00;;
3405;SDS011;10008;48.682;9.016;2022-07-30T15:28:52;3.90;;;2.03;;
3405;SDS011;10008;48.682;9.016;2022-07-30T15:31:18;4.73;;;2.47;;
3405;SDS011;10008;48.682;9.016;2022-07-30T15:33:44;5.73;;;2.30;;
3405;SDS011;10008;48.682;9.016;2022-07-30T15:36:10;5.50;;;2.27;;
3405;SDS011;10008;48.682;9.016;2022-07-30T15:38:36;5.53;;;2.00;;
3405;SDS011;10008;48.682;9.016;2022-07-30T15:41:03;4.90;;;1.90;;
3405;SDS011;10008;48.682;9.016;2022-07-30T15:43:29;5.50;;;2.57;;
3405;SDS011;10008;48.682;9.016;2022-07-30T15:45:55;6.83;;;3.87;;
3405;SDS011;10008;48.682;9.016;2022-07-30T15:48:21;5.90;;;2.83;;
3405;SDS011;10008;48.682;9.016;2022-07-30T15:50:50;7.47;;;5.63;;
3405;SDS011;10008;48.682;9.016;2022-07-30T15:53:16;4.93;;;3.17;;